Gosnells City, Western Australia

12:39 PM AWST on August 27, 2016 (GMT +0800)
Gosnells | | Change Station

Elev 39 ft 32.07 °S, 115.99 °E | Updated 8 minutes ago

Overcast
Overcast
61.9 °F
Feels Like 61.9 °F
N
7.6
Wind Variable Wind from SSW
Gusts 16.8 mph

Today
High -- | Low -- °F
--% Chance of Precip.
Yesterday
High -- | Low -- °F
Precip. -- in
Pressure 29.62 in
Visibility 6.2 miles
Clouds Scattered Clouds 1600 ft
Mostly Cloudy 3800 ft
Overcast 4500 ft
Dew Point 49 °F
Humidity 63%
Rainfall 0.56 in
Snow Depth Not available.
6:39 AM 5:56 PM
Waning Crescent, 28% visible
SPECI YPEA 270438Z AUTO 25014KT 9999 // SCT016 BKN038 OVC045 15/13 Q1003
Pressure 29.62 in
Visibility 6.2 miles
Clouds Scattered Clouds 1600 ft
Mostly Cloudy 3800 ft
Overcast 4500 ft
Dew Point 49 °F
Humidity 63%
Rainfall 0.56 in
Snow Depth Not available.
6:39 AM 5:56 PM
Waning Crescent, 28% visible
SPECI YPEA 270438Z AUTO 25014KT 9999 // SCT016 BKN038 OVC045 15/13 Q1003

10-Day Weather Forecast

Almanac

Astronomy

Aug. 27, 2016 Rise Set
Actual Time
Civil Twilight
Nautical Twilight
Astronomical Twilight
Moon
Length of Visible Light
Length of Day
Tomorrow will be .
, % of the Moon is Illuminated

Today's Extremes

Country Highs Country Lows

Community

WunderPhotos

Upload Photos

1,935,299 photos uploaded!

WunderBlog® & News

Nearby

Air Quality

  Air Quality AQ Index Pollutant
Not available.

Snow Depth

Station Depth Elevation

Earthquake Activity

City Distance Mag. Time & Date
Minimum magnitude displayed is 2.5.

Coastal Water Temperatures

Place Temperature

Stations

Nearby Weather Stations

Station Location Temp. Windchill Dew Point Humidity Wind Precip. Elev Updated Type